Terminal Aerodrome Forecast
Issued by NWS Charleston, WV

Home | Current Version | Previous Version | Text Only | Print | Product List | Glossary On
Versions: 1 2 3 4 5 6 7 8 9 10 11 12 13 14 15 16 17 18 19 20 21 22 23 24 25 26
000
FTUS41 KRLX 200903 AAA
TAFCRW
TAF AMD
KCRW 200903Z 2009/2106 00000KT 4SM BR OVC001
     FM201000 00000KT 1/4SM FG BKN001
     FM201300 00000KT 2SM BR BKN012
     FM201400 VRB02KT 5SM BR SCT025
     FM201500 VRB02KT P6SM SCT250=

USA.gov is the U.S. government's official web portal to all federal, state and local government web resources and services.